Airport ID:KCCB
Update Time (UTC):19/08/2019 21:16
Wind Speed (Knots):10
Wind Direction (Magnetic):250
Temperature (°C):29.3
Dew Point (°C):12.7
Humidity (%):35.7
Altimeter (inHg):29.96
Density Altitude (Feet):03600
Visibility (Miles):10
Clouds (Hundreds of feet):CLR
Present Weather:
METAR:METAR KCCB 192115Z AUTO 25009KT 10SM CLR 29/13 A2996 RMK AO2

The data displayed is for advisory purposes only and is not to be used for flight planning or operations.

This page is not automatically refreshed. Reload the page to see current data.